createdAt,value
2023-03-29T00:25:41.608Z,5.61
2023-03-29T00:55:45.003Z,5.20
2023-03-29T01:25:48.267Z,4.90
2023-03-29T01:55:51.870Z,5.46
2023-03-29T02:25:55.748Z,5.59
2023-03-29T02:55:59.151Z,5.23
2023-03-29T03:26:02.711Z,5.00
2023-03-29T03:56:06.307Z,5.53
2023-03-29T04:26:09.395Z,5.57
2023-03-29T04:56:12.885Z,5.17
2023-03-29T05:26:16.027Z,4.95
2023-03-29T05:56:19.454Z,4.99
2023-03-29T06:26:22.622Z,5.03
2023-03-29T06:56:25.976Z,5.06
2023-03-29T07:26:30.185Z,5.82
2023-03-29T07:56:33.919Z,5.70
2023-03-29T08:26:37.215Z,6.08
2023-03-29T08:56:40.580Z,10.44
2023-03-29T09:26:43.858Z,8.97
2023-03-29T09:56:46.768Z,7.82
2023-03-29T10:26:51.446Z,8.25
2023-03-29T10:56:54.324Z,8.71
2023-03-29T11:26:58.240Z,9.26
2023-03-29T11:57:01.172Z,9.97
2023-03-29T12:27:05.566Z,10.97
2023-03-29T12:57:08.512Z,10.64
2023-03-29T13:27:12.142Z,10.83
2023-03-29T13:57:32.987Z,11.46
2023-03-29T16:00:28.295Z,10.24
2023-03-29T17:01:38.587Z,9.10
2023-03-29T17:31:42.657Z,8.42
2023-03-29T18:01:45.947Z,8.04
2023-03-29T18:31:52.735Z,7.48
2023-03-29T20:03:33.245Z,7.91
2023-03-29T20:33:36.709Z,10.14
2023-03-29T21:03:39.850Z,7.32
2023-03-29T21:33:43.248Z,7.76
2023-03-29T22:03:46.344Z,11.50
2023-03-29T22:33:49.288Z,7.42
2023-03-29T23:03:56.289Z,7.62
2023-03-29T23:33:59.706Z,12.56
